Terminal Aerodrome Forecast
Issued by NWS

Home | Current Version | Previous Version | Text Only | Print | Product List | Glossary On
Versions: 1 2 3 4 5 6 7 8 9 10 11 12 13 14 15 16 17
000
FTUS44 KLZK 281700
TAFADF
TAF
KADF 281727Z 2818/2918 36009KT P6SM -SHRA BKN060 OVC100
     FM290000 03009KT P6SM -SHRA SCT020 BKN050
     FM290600 01005KT 5SM -SHRA BR SCT020 BKN040
     FM291200 35005KT P6SM BKN100=

USA.gov is the U.S. government's official web portal to all federal, state and local government web resources and services.